Latest Weather Observations for Batchelor

IDD60901

Issued at 4:05 pm CST Thursday 17 April 2014 (issued every 10 minutes, with the page automatically refreshed every 10 minutes)

About weather observations | Map of Darwin area stations | Latest observations for Darwin area | Other Formats
Station Details ID: 014272 Name: BATCHELOR AIRPORT Lat: -13.05 Lon: 131.03 Height: 104.0 m
Data from the previous 72 hours. | See also: Recent months at Batchelor
Date/Time
CST
Tmp

°C
App
Tmp
°C
Dew
Point
°C
Rel
Hum
%
Delta-T

°C
Wind Press
QNH
hPa
Press
MSL
hPa
Rain
since
9 am
mm
Dir
 
Spd
km/h
Gust
km/h
Spd
kts
Gust
kts
17/04:00pm 33.2 35.8 20.4 47 8.6 NE 7 15 4 8 1008.1 - 0.0
17/03:30pm 33.0 34.8 19.5 45 8.9 E 9 17 5 9 1008.4 1007.7 0.0
17/03:00pm 32.9 34.7 20.4 47 8.4 ENE 11 17 6 9 1008.5 1007.8 0.0
17/02:30pm 32.9 35.2 21.4 50 7.8 ESE 11 15 6 8 1008.9 1008.2 0.0
17/02:00pm 31.7 33.7 20.0 50 7.8 E 9 17 5 9 1009.3 - 0.0
17/01:30pm 32.4 34.1 21.0 51 7.7 E 13 22 7 12 1009.7 1009.0 0.0
17/01:00pm 32.1 34.1 20.0 48 8.0 ENE 9 19 5 10 1010.1 - 0.0
17/12:30pm 31.8 34.7 21.0 52 7.3 ENE 7 17 4 9 1010.5 1009.8 0.0
17/12:00pm 30.8 32.5 20.1 53 7.1 ENE 11 17 6 9 1010.9 1010.2 0.0
17/11:30am 31.7 33.4 20.9 52 7.3 E 13 22 7 12 1011.2 1010.6 0.0
17/11:00am 29.9 32.8 21.0 59 6.0 E 7 13 4 7 1011.7 - 0.0
17/10:30am 28.4 31.0 21.2 65 4.8 ESE 9 15 5 8 1012.0 1011.4 0.0
17/10:00am 26.9 28.9 20.0 66 4.5 E 9 13 5 7 1011.9 - 0.0
17/09:30am 26.9 28.9 20.0 66 4.5 ESE 9 13 5 7 1011.7 1011.1 0.0
17/09:00am 26.5 27.8 20.1 68 4.2 E 13 17 7 9 1011.5 1010.9 0.0
17/08:30am 25.1 26.4 18.5 67 4.2 ESE 9 13 5 7 1011.4 1010.8 0.0
17/08:00am 23.7 25.0 18.4 72 3.4 ESE 9 11 5 6 1011.2 - 0.0
17/07:30am 20.5 22.7 18.4 88 1.3 E 4 7 2 4 1011.1 1010.5 0.0
17/07:00am 19.8 22.3 18.1 90 1.1 ENE 2 4 1 2 1010.8 - 0.0
17/06:30am 19.6 22.4 17.9 90 1.1 CALM 0 0 0 0 1010.5 1009.8 0.0
17/06:00am 19.7 22.4 17.8 89 1.2 CALM 0 0 0 0 1010.2 1009.5 0.0
17/05:30am 19.8 22.6 17.9 89 1.2 CALM 0 0 0 0 1010.0 1009.3 0.0
17/05:00am 20.0 22.9 18.3 90 1.1 CALM 0 0 0 0 1009.6 - 0.0
17/04:30am 20.3 23.4 18.6 90 1.1 CALM 0 0 0 0 1009.5 1008.8 0.0
17/04:00am 20.5 23.7 18.8 90 1.1 CALM 0 0 0 0 1009.4 - 0.0
17/03:30am 20.6 23.7 18.7 89 1.2 CALM 0 0 0 0 1009.3 1008.6 0.0
17/03:00am 21.0 24.4 19.3 90 1.1 CALM 0 0 0 0 1009.4 1008.7 0.0
17/02:30am 20.9 23.9 18.5 86 1.5 CALM 0 0 0 0 1009.8 1009.1 0.0
17/02:00am 21.4 24.8 19.3 88 1.3 CALM 0 0 0 0 1010.0 - 0.0
17/01:30am 21.5 24.9 19.4 88 1.3 CALM 0 0 0 0 1010.2 1009.5 0.0
17/01:00am 21.5 24.8 19.2 87 1.5 CALM 0 0 0 0 1010.5 - 0.0
17/12:30am 21.7 24.3 18.5 82 2.0 ENE 2 4 1 2 1010.7 1010.0 0.0
17/12:00am 21.9 24.1 18.3 80 2.3 ENE 4 7 2 4 1010.9 1010.2 0.0
 
Date/Time
CST
Tmp

°C
App
Tmp
°C
Dew
Point
°C
Rel
Hum
%
Delta-T

°C
Wind Press
QNH
hPa
Press
MSL
hPa
Rain
since
9 am
mm
Dir
 
Spd
km/h
Gust
km/h
Spd
kts
Gust
kts
16/11:30pm 22.1 25.6 19.5 85 1.7 CALM 0 0 0 0 1010.8 1010.1 0.0
16/11:00pm 22.4 25.7 19.2 82 2.0 CALM 0 0 0 0 1010.8 - 0.0
16/10:30pm 22.6 26.1 19.6 83 1.9 CALM 0 0 0 0 1010.8 1010.1 0.0
16/10:00pm 22.8 26.3 19.6 82 2.1 CALM 0 0 0 0 1010.8 - 0.0
16/09:30pm 23.0 26.3 19.0 78 2.5 CALM 0 0 0 0 1010.5 1009.8 0.0
16/09:00pm 23.5 27.3 20.2 82 2.1 ENE 0 2 0 1 1010.2 1009.5 0.0
16/08:30pm 23.8 27.5 19.9 79 2.5 CALM 0 0 0 0 1009.8 1009.1 0.0
16/08:00pm 24.4 27.6 18.8 71 3.6 CALM 0 0 0 0 1009.6 - 0.0
16/07:30pm 24.9 28.3 19.3 71 3.6 CALM 0 0 0 0 1009.4 1008.7 0.0
16/07:00pm 26.7 30.5 20.1 67 4.3 CALM 0 0 0 0 1008.9 - 0.0
16/06:30pm 29.2 33.6 21.4 63 5.2 CALM 0 0 0 0 1008.9 1008.2 0.0
16/06:00pm 31.6 32.1 15.1 36 10.2 E 6 7 3 4 1008.6 1007.9 0.0
16/05:30pm 32.9 33.2 15.0 34 11.1 E 7 9 4 5 1008.3 1007.6 0.0
16/05:00pm 33.3 32.8 14.8 32 11.5 E 11 15 6 8 1008.1 - 0.0
16/04:30pm 33.3 32.5 13.9 31 11.9 E 11 15 6 8 1008.0 1007.3 0.0
16/04:00pm 33.3 33.0 14.4 32 11.6 E 9 17 5 9 1008.0 - 0.0
16/03:30pm 33.4 33.1 14.5 32 11.7 ESE 9 13 5 7 1008.1 1007.4 0.0
16/03:00pm 33.5 31.9 14.0 30 12.0 ESE 15 22 8 12 1008.4 1007.7 0.0
16/02:30pm 33.5 32.5 14.5 31 11.7 E 13 24 7 13 1008.7 1008.0 0.0
16/02:00pm 33.3 32.0 14.8 32 11.5 E 15 22 8 12 1009.0 - 0.0
16/01:30pm 33.2 32.2 15.7 35 11.0 ESE 15 24 8 13 1009.3 1008.6 0.0
16/01:00pm 32.7 32.1 15.7 36 10.6 E 13 26 7 14 1009.9 - 0.0
16/12:30pm 32.4 30.6 15.4 36 10.6 E 19 28 10 15 1010.4 1009.7 0.0
16/12:00pm 32.3 30.6 16.2 38 10.2 ESE 20 28 11 15 1010.8 1010.1 0.0
16/11:30am 31.9 30.4 15.4 37 10.3 ESE 17 28 9 15 1011.4 1010.8 0.0
16/11:00am 31.1 29.3 15.5 39 9.7 E 19 28 10 15 1011.9 - 0.0
16/10:30am 30.4 29.6 16.0 41 9.0 E 15 22 8 12 1012.1 1011.5 0.0
16/10:00am 29.4 29.2 16.6 46 8.0 ESE 13 20 7 11 1012.2 - 0.0
16/09:30am 28.4 28.3 17.0 50 7.2 ESE 13 15 7 8 1012.2 1011.6 0.0
16/09:00am 27.0 27.5 16.6 53 6.5 ESE 9 13 5 7 1012.0 1011.4 0.0
16/08:30am 25.3 27.9 19.2 69 3.9 SE 4 6 2 3 1011.8 1011.2 0.0
16/08:00am 23.8 26.5 19.5 77 2.8 NE 4 6 2 3 1011.7 - 0.0
16/07:30am 22.0 25.9 21.2 95 0.5 N 2 4 1 2 1011.6 1011.0 0.0
16/07:00am 20.5 24.1 19.7 95 0.5 CALM 0 0 0 0 1011.4 - 0.0
16/06:30am 20.4 23.7 19.1 92 0.8 CALM 0 0 0 0 1011.2 1010.6 0.0
16/06:00am 20.5 23.8 19.2 92 0.8 CALM 0 0 0 0 1011.0 1010.4 0.0
16/05:30am 21.1 24.9 20.1 94 0.6 CALM 0 0 0 0 1010.5 1009.8 0.0
16/05:00am 20.9 24.4 19.6 92 0.8 CALM 0 0 0 0 1010.4 - 0.0
16/04:30am 21.5 25.4 20.3 93 0.8 CALM 0 0 0 0 1010.6 1009.9 0.0
16/04:00am 21.6 25.5 20.4 93 0.8 CALM 0 0 0 0 1010.4 - 0.0
16/03:30am 21.4 25.1 19.9 91 1.0 CALM 0 0 0 0 1010.5 1009.8 0.0
16/03:00am 21.7 25.7 20.5 93 0.8 CALM 0 0 0 0 1010.6 1009.9 0.0
16/02:30am 21.2 24.8 19.7 91 1.0 CALM 0 0 0 0 1010.6 1009.9 0.0
16/02:00am 21.4 25.0 19.7 90 1.1 CALM 0 0 0 0 1010.7 - 0.0
16/01:30am 21.6 25.1 19.5 88 1.3 CALM 0 0 0 0 1011.0 1010.4 0.0
16/01:00am 21.6 25.3 19.9 90 1.1 CALM 0 0 0 0 1011.2 - 0.0
16/12:30am 21.9 25.5 19.8 88 1.3 CALM 0 0 0 0 1011.2 1010.6 0.0
16/12:00am 22.1 25.6 19.5 85 1.7 CALM 0 0 0 0 1011.4 1010.8 0.0
 
Date/Time
CST
Tmp

°C
App
Tmp
°C
Dew
Point
°C
Rel
Hum
%
Delta-T

°C
Wind Press
QNH
hPa
Press
MSL
hPa
Rain
since
9 am
mm
Dir
 
Spd
km/h
Gust
km/h
Spd
kts
Gust
kts
15/11:30pm 22.4 26.1 19.9 86 1.6 CALM 0 0 0 0 1011.5 1010.9 0.0
15/11:00pm 22.7 26.4 19.9 84 1.8 CALM 0 0 0 0 1011.3 - 0.0
15/10:30pm 23.2 26.8 19.8 81 2.2 CALM 0 0 0 0 1011.5 1010.9 0.0
15/10:00pm 23.7 27.0 19.2 76 2.9 CALM 0 0 0 0 1011.3 - 0.0
15/09:30pm 23.9 26.0 18.1 70 3.7 NNE 4 9 2 5 1011.2 1010.6 0.0
15/09:00pm 24.2 27.5 19.9 77 2.8 SSE 2 2 1 1 1011.0 1010.4 0.0
15/08:30pm 24.8 28.6 20.9 79 2.6 SSE 2 4 1 2 1010.8 1010.1 0.0
15/08:00pm 25.4 28.8 20.9 76 3.0 S 4 4 2 2 1010.4 - 0.0
15/07:30pm 26.6 29.6 20.0 67 4.3 E 4 6 2 3 1009.9 1009.2 0.0
15/07:00pm 27.6 31.0 20.9 67 4.4 ENE 4 6 2 3 1009.6 - 0.0
15/06:30pm 29.3 32.7 20.2 58 6.0 ENE 2 4 1 2 1009.3 1008.6 0.0
15/06:00pm 31.6 32.6 16.4 40 9.6 E 6 7 3 4 1008.9 1008.2 0.0
15/05:30pm 32.4 32.6 15.8 36 10.4 E 9 13 5 7 1008.7 1008.0 0.0
15/05:00pm 32.8 32.7 14.9 34 11.1 E 9 13 5 7 1008.6 - 0.0
15/04:30pm 32.9 32.1 15.0 34 11.1 E 13 19 7 10 1008.3 1007.6 0.0
15/04:00pm 32.9 32.6 15.4 35 10.9 E 11 17 6 9 1008.4 - 0.0
15/03:30pm 33.0 32.2 15.0 33 11.2 E 13 20 7 11 1008.5 1007.8 0.0
15/03:00pm 33.0 33.3 15.9 35 10.8 SE 9 19 5 10 1008.6 1007.9 0.0
15/02:30pm 32.9 32.2 15.4 35 10.9 ESE 13 19 7 10 1008.7 1008.0 0.0
15/02:00pm 32.8 32.0 16.2 37 10.5 ESE 15 26 8 14 1009.2 - 0.0
15/01:30pm 32.8 32.7 17.8 40 9.7 SE 15 22 8 12 1009.3 1008.6 0.0
15/01:00pm 31.8 31.0 16.1 38 9.9 E 15 24 8 13 1010.0 - 0.0
15/12:30pm 32.1 31.2 16.8 40 9.7 E 17 28 9 15 1010.6 1009.9 0.0
15/12:00pm 31.3 29.9 16.5 41 9.3 ESE 19 30 10 16 1011.1 1010.5 0.0
15/11:30am 31.2 29.3 16.8 42 9.1 ESE 22 32 12 17 1011.7 1011.1 0.0
15/11:00am 30.6 30.4 17.7 46 8.3 ESE 15 22 8 12 1012.3 - 0.0
15/10:30am 29.8 29.8 19.8 55 6.6 E 19 24 10 13 1012.6 1012.0 0.0
15/10:00am 28.7 29.8 20.4 60 5.5 ESE 15 22 8 12 1012.6 - 0.0
15/09:30am 26.9 29.5 21.2 71 3.8 SE 9 15 5 8 1012.3 1011.7 0.0
15/09:00am 26.2 30.3 22.3 79 2.6 SSE 4 7 2 4 1012.4 1011.8 6.6
15/08:30am 25.4 28.7 21.5 79 2.6 ESE 6 9 3 5 1012.1 1011.5 6.6
15/08:00am 24.9 28.0 21.0 79 2.6 SSE 6 9 3 5 1011.7 - 6.6
15/07:30am 24.6 28.6 22.1 86 1.7 SSE 4 7 2 4 1011.2 1010.6 6.6
15/07:00am 24.8 30.2 23.2 91 1.1 CALM 0 6 0 3 1010.7 - 6.6
15/06:30am 24.7 29.4 22.6 88 1.4 NE 2 6 1 3 1010.5 1009.8 6.6
15/06:00am 24.7 28.5 22.8 89 1.3 ENE 7 9 4 5 1010.5 1009.8 6.6
15/05:30am 24.8 28.9 22.9 89 1.3 ESE 6 7 3 4 1010.5 1009.8 6.6
15/05:00am 24.8 28.4 23.0 90 1.2 ESE 9 13 5 7 1010.5 - 6.6
15/04:30am 24.6 28.7 23.0 91 1.1 E 6 7 3 4 1010.3 1009.6 6.6
15/04:00am 24.7 29.6 23.1 91 1.1 E 2 2 1 1 1010.0 - 6.6
15/03:30am 24.9 29.8 23.1 90 1.2 E 2 2 1 1 1010.0 1009.3 6.6
15/03:00am 24.9 29.1 23.1 90 1.2 ENE 6 7 3 4 1010.4 1009.7 6.6
15/02:30am 25.0 29.6 23.2 90 1.2 NE 4 6 2 3 1010.4 1009.7 6.6
15/02:00am 25.0 29.2 23.2 90 1.2 ENE 6 9 3 5 1010.6 - 6.6
15/01:30am 25.1 30.5 23.3 90 1.2 CALM 0 0 0 0 1010.4 1009.7 6.6
15/01:00am 25.0 30.4 23.2 90 1.2 CALM 0 2 0 1 1010.5 - 6.6
15/12:30am 24.9 29.8 23.1 90 1.2 W 2 4 1 2 1010.7 1010.0 6.6
15/12:00am 24.9 29.6 23.3 91 1.1 W 4 4 2 2 1011.0 1010.4 6.6
 
Date/Time
CST
Tmp

°C
App
Tmp
°C
Dew
Point
°C
Rel
Hum
%
Delta-T

°C
Wind Press
QNH
hPa
Press
MSL
hPa
Rain
since
9 am
mm
Dir
 
Spd
km/h
Gust
km/h
Spd
kts
Gust
kts
14/11:30pm 24.9 29.5 23.1 90 1.2 WSW 4 6 2 3 1011.3 1010.7 6.6
14/11:00pm 24.8 29.5 23.4 92 1.0 WSW 4 6 2 3 1011.3 - 6.6
14/10:30pm 24.7 29.6 23.1 91 1.1 WSW 2 6 1 3 1011.4 1010.8 6.6
14/10:00pm 24.8 30.3 23.4 92 1.0 CALM 0 2 0 1 1011.4 - 6.6
14/09:30pm 25.0 29.5 23.6 92 1.0 SE 6 6 3 3 1011.2 1010.6 6.6
14/09:00pm 25.0 29.6 23.2 90 1.2 NE 4 7 2 4 1011.1 1010.5 6.6
14/08:30pm 24.6 29.9 23.0 91 1.1 CALM 0 0 0 0 1010.6 1009.9 6.6
14/08:00pm 24.3 28.2 22.6 90 1.1 WNW 6 9 3 5 1010.5 - 6.6
14/07:30pm 24.6 28.7 23.0 91 1.1 NW 6 9 3 5 1010.1 1009.4 5.6
14/07:00pm 25.5 28.9 22.0 81 2.3 SSE 7 19 4 10 1009.6 - 3.2
14/06:30pm 27.4 30.3 21.7 71 3.8 E 9 17 5 9 1009.3 1008.6 0.0
14/06:00pm 27.9 30.0 21.0 66 4.6 E 11 15 6 8 1008.9 1008.2 0.0
14/05:30pm 28.6 31.4 22.3 68 4.3 ESE 11 19 6 10 1008.2 1007.5 0.0
14/05:00pm 28.9 31.1 21.9 66 4.7 ESE 13 20 7 11 1007.9 - 0.0
14/04:30pm 31.7 35.0 21.5 54 6.9 E 6 9 3 5 1007.4 1006.7 0.0

Latest Capital City Observations: Canberra | Sydney | Melbourne | Brisbane | Adelaide | Perth | Hobart | Darwin

Other Formats:

Comma delimited format used in spreadsheet applications
http://www.bom.gov.au/fwo/IDD60901/IDD60901.94125.axf

JavaScript Object Notation format (JSON) in row-major order
http://www.bom.gov.au/fwo/IDD60901/IDD60901.94125.json